Pays
Station

 

Conditions  météo  pour  Snowshoe Lake  -  Etats-Unis    Etats-Unis

  
7 °C
    
 
 

METAR pour Snowshoe Lake :

PALK 301857Z 00000KT 40SM SKC 07/05 A3040 RMK EST PASS OPEN NOSPECI

 

Voici le bulletin pour Snowshoe Lake - Etats-Unis.
 
Le bulletin a été fait il y a 409 heures et 8 minutes, à 18:57 UTC .
Le vent était calme.
 
La température était de 7 °C, avec un point de rosée à 5 °C.
La pression atmosphérique était de 1029 hPa.
L'humidité relative était de 87.1%.
 
Le ciel était clair.
 
La visibilité globale était de 64.4 kilomètres.
 

 
 
 

Pays :   A   B   C   D   E   F   G   H   I   J   K   L   M   N   O   P   Q   R   S   T   U   V   W   Y   Z

 

Partenaires :  Info Météo avec Met'info
Météo Marine avec MeteoMarine.net
Infos Site  |  Infos Légales  |  Crédits  |  Confidentialité
Contactez-nous  |  Ajouter aux favoris
© 2013-2018 METAR - Tous droits réservés